White Cottage, Ohio
Current Conditions -  °F | °C
As of 3:53 PM on Sunday 28 Dec 2014 (Local Time) from KZZV Reporting Station
Overcast Overcast  
Wind Chill: 32°   Ceiling: 2800
Heat Index: 37°   Visibility: 10mi
Dew Point: 29°   Wind: 7mph
Humidity: 73%   Direction: 310°NW
Pressure: 30.11"   Gusts: NA
Location:  39.87°N, 82.1°W
Report Text: KZZV 282053Z AUTO 31006KT 10SM OVC028 03/M02 A3011 RMK AO2 SLP199 T00281017 53014
Loading
Personal Weather Stations






























Interactive Weather Map New forecast layout! Learn more

10-Day Weather Forecast

Advertisements
Track Severe Weather on mobile